sensor_id;sensor_type;location;lat;lon;timestamp;pressure;altitude;pressure_sealevel;temperature;humidity
40155;BME280;25875;48.202;16.334;2023-05-17T00:00:58;98568.94;;;12.28;79.95
40155;BME280;25875;48.202;16.334;2023-05-17T00:03:25;98577.03;;;12.26;80.13
40155;BME280;25875;48.202;16.334;2023-05-17T00:05:52;98581.59;;;12.24;79.92
40155;BME280;25875;48.202;16.334;2023-05-17T00:08:20;98583.53;;;12.22;80.08
40155;BME280;25875;48.202;16.334;2023-05-17T00:10:46;98590.66;;;12.22;79.91
40155;BME280;25875;48.202;16.334;2023-05-17T00:13:13;98582.78;;;12.20;80.01
40155;BME280;25875;48.202;16.334;2023-05-17T00:15:40;98592.69;;;12.18;79.76
40155;BME280;25875;48.202;16.334;2023-05-17T00:18:07;98585.75;;;12.15;79.72
40155;BME280;25875;48.202;16.334;2023-05-17T00:20:33;98592.13;;;12.13;79.93
40155;BME280;25875;48.202;16.334;2023-05-17T00:23:00;98568.28;;;12.00;80.06
40155;BME280;25875;48.202;16.334;2023-05-17T00:25:29;98599.25;;;12.12;79.83
40155;BME280;25875;48.202;16.334;2023-05-17T00:27:56;98605.31;;;12.14;79.85
40155;BME280;25875;48.202;16.334;2023-05-17T00:30:23;98605.41;;;12.13;79.69
40155;BME280;25875;48.202;16.334;2023-05-17T00:32:49;98603.72;;;12.12;79.94
40155;BME280;25875;48.202;16.334;2023-05-17T00:35:16;98597.06;;;12.06;79.66
40155;BME280;25875;48.202;16.334;2023-05-17T00:37:43;98605.75;;;12.08;80.05
40155;BME280;25875;48.202;16.334;2023-05-17T00:40:12;98607.56;;;12.08;79.97
40155;BME280;25875;48.202;16.334;2023-05-17T00:42:41;98599.47;;;12.09;79.97
40155;BME280;25875;48.202;16.334;2023-05-17T00:45:08;98600.34;;;12.10;79.72
40155;BME280;25875;48.202;16.334;2023-05-17T00:47:36;98588.97;;;12.08;79.52
40155;BME280;25875;48.202;16.334;2023-05-17T00:50:03;98589.19;;;12.05;79.71
40155;BME280;25875;48.202;16.334;2023-05-17T00:52:30;98598.34;;;12.01;79.63
40155;BME280;25875;48.202;16.334;2023-05-17T00:54:57;98600.16;;;12.00;79.64
40155;BME280;25875;48.202;16.334;2023-05-17T00:57:24;98604.69;;;11.98;79.58
40155;BME280;25875;48.202;16.334;2023-05-17T00:59:52;98596.63;;;12.00;79.74
40155;BME280;25875;48.202;16.334;2023-05-17T01:02:20;98600.22;;;11.99;79.44
40155;BME280;25875;48.202;16.334;2023-05-17T01:04:46;98611.94;;;11.96;79.44
40155;BME280;25875;48.202;16.334;2023-05-17T01:07:13;98608.53;;;11.94;79.51
40155;BME280;25875;48.202;16.334;2023-05-17T01:09:41;98605.03;;;11.94;79.35
40155;BME280;25875;48.202;16.334;2023-05-17T01:12:14;98612.25;;;11.92;79.52
40155;BME280;25875;48.202;16.334;2023-05-17T01:14:52;98614.91;;;11.92;79.56
40155;BME280;25875;48.202;16.334;2023-05-17T01:17:30;98621.06;;;11.92;79.33
40155;BME280;25875;48.202;16.334;2023-05-17T01:20:04;98629.88;;;11.93;79.42
40155;BME280;25875;48.202;16.334;2023-05-17T01:22:42;98629.16;;;11.91;79.23
40155;BME280;25875;48.202;16.334;2023-05-17T01:25:28;98630.31;;;11.86;79.07
40155;BME280;25875;48.202;16.334;2023-05-17T01:28:02;98625.13;;;11.85;79.44
40155;BME280;25875;48.202;16.334;2023-05-17T01:30:31;98633.84;;;11.87;79.50
40155;BME280;25875;48.202;16.334;2023-05-17T01:32:59;98633.84;;;11.87;79.46
40155;BME280;25875;48.202;16.334;2023-05-17T01:35:27;98636.38;;;11.88;79.16
40155;BME280;25875;48.202;16.334;2023-05-17T01:37:54;98640.94;;;11.86;79.30
40155;BME280;25875;48.202;16.334;2023-05-17T01:40:21;98651.56;;;11.86;79.33
40155;BME280;25875;48.202;16.334;2023-05-17T01:42:52;98651.56;;;11.86;78.83
40155;BME280;25875;48.202;16.334;2023-05-17T01:45:23;98654.44;;;11.83;78.88
40155;BME280;25875;48.202;16.334;2023-05-17T01:47:59;98651.78;;;11.83;79.05
40155;BME280;25875;48.202;16.334;2023-05-17T01:50:31;98666.03;;;11.82;78.79
40155;BME280;25875;48.202;16.334;2023-05-17T01:53:02;98670.59;;;11.80;78.96
40155;BME280;25875;48.202;16.334;2023-05-17T01:55:40;98669.84;;;11.78;78.47
40155;BME280;25875;48.202;16.334;2023-05-17T01:58:10;98664.75;;;11.75;78.84
40155;BME280;25875;48.202;16.334;2023-05-17T02:00:40;98669.00;;;11.78;78.96
40155;BME280;25875;48.202;16.334;2023-05-17T02:03:11;98654.06;;;11.64;78.90
40155;BME280;25875;48.202;16.334;2023-05-17T02:05:38;98668.38;;;11.74;78.90
40155;BME280;25875;48.202;16.334;2023-05-17T02:08:05;98677.19;;;11.75;78.95
40155;BME280;25875;48.202;16.334;2023-05-17T02:10:32;98676.56;;;11.71;78.68
40155;BME280;25875;48.202;16.334;2023-05-17T02:12:58;98680.16;;;11.70;78.51
40155;BME280;25875;48.202;16.334;2023-05-17T02:15:25;98676.88;;;11.67;78.56
40155;BME280;25875;48.202;16.334;2023-05-17T02:17:53;98687.38;;;11.68;78.41
40155;BME280;25875;48.202;16.334;2023-05-17T02:20:20;98687.50;;;11.67;78.57
40155;BME280;25875;48.202;16.334;2023-05-17T02:22:47;98656.19;;;11.46;78.76
40155;BME280;25875;48.202;16.334;2023-05-17T02:25:14;98691.84;;;11.68;78.42
40155;BME280;25875;48.202;16.334;2023-05-17T02:27:41;98698.09;;;11.67;78.53
40155;BME280;25875;48.202;16.334;2023-05-17T02:30:08;98694.72;;;11.65;78.38
40155;BME280;25875;48.202;16.334;2023-05-17T02:32:35;98686.84;;;11.63;78.43
40155;BME280;25875;48.202;16.334;2023-05-17T02:35:05;98693.97;;;11.63;78.60
40155;BME280;25875;48.202;16.334;2023-05-17T02:37:32;98701.09;;;11.62;78.48
40155;BME280;25875;48.202;16.334;2023-05-17T02:39:58;98703.84;;;11.61;78.63
40155;BME280;25875;48.202;16.334;2023-05-17T02:42:25;98708.31;;;11.60;78.37
40155;BME280;25875;48.202;16.334;2023-05-17T02:44:52;98706.72;;;11.57;78.31
40155;BME280;25875;48.202;16.334;2023-05-17T02:47:20;98710.44;;;11.55;78.37
40155;BME280;25875;48.202;16.334;2023-05-17T02:49:47;98715.84;;;11.53;78.14
40155;BME280;25875;48.202;16.334;2023-05-17T02:52:15;98716.06;;;11.50;78.40
40155;BME280;25875;48.202;16.334;2023-05-17T02:54:42;98716.16;;;11.49;78.23
40155;BME280;25875;48.202;16.334;2023-05-17T02:57:09;98714.34;;;11.49;78.25
40155;BME280;25875;48.202;16.334;2023-05-17T02:59:36;98714.47;;;11.48;78.26
40155;BME280;25875;48.202;16.334;2023-05-17T03:02:04;98718.19;;;11.45;78.21
40155;BME280;25875;48.202;16.334;2023-05-17T03:04:31;98716.69;;;11.41;77.71
40155;BME280;25875;48.202;16.334;2023-05-17T03:06:58;98723.38;;;11.34;77.72
40155;BME280;25875;48.202;16.334;2023-05-17T03:09:26;98725.38;;;11.31;77.94
40155;BME280;25875;48.202;16.334;2023-05-17T03:11:54;98717.19;;;11.21;77.71
40155;BME280;25875;48.202;16.334;2023-05-17T03:14:20;98732.81;;;11.26;77.95
40155;BME280;25875;48.202;16.334;2023-05-17T03:16:47;98732.06;;;11.23;77.77
40155;BME280;25875;48.202;16.334;2023-05-17T03:19:14;98738.31;;;11.22;77.87
40155;BME280;25875;48.202;16.334;2023-05-17T03:21:41;98741.91;;;11.21;78.00
40155;BME280;25875;48.202;16.334;2023-05-17T03:24:08;98735.75;;;11.21;77.86
40155;BME280;25875;48.202;16.334;2023-05-17T03:26:36;98746.47;;;11.19;77.80
40155;BME280;25875;48.202;16.334;2023-05-17T03:29:02;98748.47;;;11.16;77.59
40155;BME280;25875;48.202;16.334;2023-05-17T03:31:29;98756.53;;;11.14;77.54
40155;BME280;25875;48.202;16.334;2023-05-17T03:33:56;98759.50;;;11.10;77.69
40155;BME280;25875;48.202;16.334;2023-05-17T03:36:23;98776.25;;;11.10;77.40
40155;BME280;25875;48.202;16.334;2023-05-17T03:38:49;98769.06;;;11.12;77.30
40155;BME280;25875;48.202;16.334;2023-05-17T03:41:16;98773.59;;;11.10;77.39
40155;BME280;25875;48.202;16.334;2023-05-17T03:43:44;98772.97;;;11.07;77.04
40155;BME280;25875;48.202;16.334;2023-05-17T03:46:11;98776.66;;;11.04;77.47
40155;BME280;25875;48.202;16.334;2023-05-17T03:48:38;98784.44;;;11.07;77.48
40155;BME280;25875;48.202;16.334;2023-05-17T03:51:05;98788.34;;;11.02;77.27
40155;BME280;25875;48.202;16.334;2023-05-17T03:53:32;98805.09;;;11.02;77.55
40155;BME280;25875;48.202;16.334;2023-05-17T03:55:59;98779.59;;;10.87;77.39
40155;BME280;25875;48.202;16.334;2023-05-17T03:58:25;98809.75;;;10.99;77.38
40155;BME280;25875;48.202;16.334;2023-05-17T04:00:53;98813.34;;;10.98;77.35
40155;BME280;25875;48.202;16.334;2023-05-17T04:03:20;98824.25;;;10.93;77.50
40155;BME280;25875;48.202;16.334;2023-05-17T04:05:47;98828.69;;;10.93;77.42
40155;BME280;25875;48.202;16.334;2023-05-17T04:08:15;98837.72;;;10.90;77.01
40155;BME280;25875;48.202;16.334;2023-05-17T04:10:41;98839.59;;;10.88;77.27
40155;BME280;25875;48.202;16.334;2023-05-17T04:13:09;98842.34;;;10.86;77.18
40155;BME280;25875;48.202;16.334;2023-05-17T04:15:35;98478.56;;;8.67;77.02
40155;BME280;25875;48.202;16.334;2023-05-17T04:18:04;98847.94;;;10.82;76.98
40155;BME280;25875;48.202;16.334;2023-05-17T04:20:31;98863.97;;;10.80;77.34
40155;BME280;25875;48.202;16.334;2023-05-17T04:22:57;98837.34;;;10.68;77.20
40155;BME280;25875;48.202;16.334;2023-05-17T04:25:24;98861.56;;;10.76;77.22
40155;BME280;25875;48.202;16.334;2023-05-17T04:27:51;98869.72;;;10.73;77.34
40155;BME280;25875;48.202;16.334;2023-05-17T04:30:18;98869.81;;;10.71;77.09
40155;BME280;25875;48.202;16.334;2023-05-17T04:32:46;98868.31;;;10.67;77.02
40155;BME280;25875;48.202;16.334;2023-05-17T04:35:16;98869.34;;;10.65;77.05
40155;BME280;25875;48.202;16.334;2023-05-17T04:37:42;98874.66;;;10.65;77.12
40155;BME280;25875;48.202;16.334;2023-05-17T04:40:10;98869.34;;;10.65;77.05
40155;BME280;25875;48.202;16.334;2023-05-17T04:42:37;98868.69;;;10.61;76.93
40155;BME280;25875;48.202;16.334;2023-05-17T04:45:04;98880.13;;;10.62;76.83
40155;BME280;25875;48.202;16.334;2023-05-17T04:47:31;98874.94;;;10.60;76.96
40155;BME280;25875;48.202;16.334;2023-05-17T04:49:58;98883.72;;;10.60;76.88
40155;BME280;25875;48.202;16.334;2023-05-17T04:52:27;98891.69;;;10.60;76.50
40155;BME280;25875;48.202;16.334;2023-05-17T04:54:53;98905.13;;;10.57;76.62
40155;BME280;25875;48.202;16.334;2023-05-17T04:57:20;98903.50;;;10.55;76.54
40155;BME280;25875;48.202;16.334;2023-05-17T04:59:47;98910.72;;;10.53;76.40
40155;BME280;25875;48.202;16.334;2023-05-17T05:02:14;98912.69;;;10.49;76.44
40155;BME280;25875;48.202;16.334;2023-05-17T05:04:40;98916.09;;;10.51;76.52
40155;BME280;25875;48.202;16.334;2023-05-17T05:07:07;98916.09;;;10.51;76.37
40155;BME280;25875;48.202;16.334;2023-05-17T05:09:35;98920.66;;;10.49;76.23
40155;BME280;25875;48.202;16.334;2023-05-17T05:12:02;98918.19;;;10.46;76.44
40155;BME280;25875;48.202;16.334;2023-05-17T05:14:29;98914.78;;;10.44;76.47
40155;BME280;25875;48.202;16.334;2023-05-17T05:16:56;98928.03;;;10.44;76.21
40155;BME280;25875;48.202;16.334;2023-05-17T05:19:22;98921.22;;;10.40;76.27
40155;BME280;25875;48.202;16.334;2023-05-17T05:21:49;98925.00;;;10.36;76.30
40155;BME280;25875;48.202;16.334;2023-05-17T05:24:16;98945.44;;;10.34;76.27
40155;BME280;25875;48.202;16.334;2023-05-17T05:26:44;98941.16;;;10.32;76.08
40155;BME280;25875;48.202;16.334;2023-05-17T05:29:11;98936.91;;;10.29;76.11
40155;BME280;25875;48.202;16.334;2023-05-17T05:31:38;98951.28;;;10.25;76.48
40155;BME280;25875;48.202;16.334;2023-05-17T05:34:04;98954.03;;;10.23;76.53
40155;BME280;25875;48.202;16.334;2023-05-17T05:36:31;98952.50;;;10.19;76.37
40155;BME280;25875;48.202;16.334;2023-05-17T05:38:58;98966.50;;;10.21;76.15
40155;BME280;25875;48.202;16.334;2023-05-17T05:41:25;98971.03;;;10.19;76.29
40155;BME280;25875;48.202;16.334;2023-05-17T05:43:53;98980.09;;;10.15;76.02
40155;BME280;25875;48.202;16.334;2023-05-17T05:46:20;98987.19;;;10.15;76.07
40155;BME280;25875;48.202;16.334;2023-05-17T05:48:47;98958.88;;;10.01;76.16
40155;BME280;25875;48.202;16.334;2023-05-17T05:51:13;98969.66;;;9.98;76.13
40155;BME280;25875;48.202;16.334;2023-05-17T05:53:40;98984.91;;;10.09;76.26
40155;BME280;25875;48.202;16.334;2023-05-17T05:56:07;98960.81;;;9.83;76.15
40155;BME280;25875;48.202;16.334;2023-05-17T05:58:35;99000.03;;;10.07;76.08
40155;BME280;25875;48.202;16.334;2023-05-17T06:01:03;98966.13;;;9.83;76.07
40155;BME280;25875;48.202;16.334;2023-05-17T06:03:31;99010.53;;;10.08;76.09
40155;BME280;25875;48.202;16.334;2023-05-17T06:05:58;98967.81;;;9.84;75.96
40155;BME280;25875;48.202;16.334;2023-05-17T06:08:25;99014.81;;;10.11;76.06
40155;BME280;25875;48.202;16.334;2023-05-17T06:10:52;99003.34;;;10.10;76.21
40155;BME280;25875;48.202;16.334;2023-05-17T06:13:19;99012.16;;;10.11;75.91
40155;BME280;25875;48.202;16.334;2023-05-17T06:15:46;99012.06;;;10.12;75.79
40155;BME280;25875;48.202;16.334;2023-05-17T06:18:14;99015.56;;;10.13;76.06
40155;BME280;25875;48.202;16.334;2023-05-17T06:20:41;99018.31;;;10.11;75.99
40155;BME280;25875;48.202;16.334;2023-05-17T06:23:08;99005.91;;;10.12;76.22
40155;BME280;25875;48.202;16.334;2023-05-17T06:25:34;99013.84;;;10.12;76.14
40155;BME280;25875;48.202;16.334;2023-05-17T06:28:02;99013.69;;;10.15;76.28
40155;BME280;25875;48.202;16.334;2023-05-17T06:30:29;99014.72;;;10.12;76.07
40155;BME280;25875;48.202;16.334;2023-05-17T06:32:55;99013.84;;;10.12;76.38
40155;BME280;25875;48.202;16.334;2023-05-17T06:35:24;99013.28;;;10.07;76.57
40155;BME280;25875;48.202;16.334;2023-05-17T06:37:50;99008.16;;;10.04;76.65
40155;BME280;25875;48.202;16.334;2023-05-17T06:40:17;99018.66;;;10.05;76.43
40155;BME280;25875;48.202;16.334;2023-05-17T06:42:44;99025.84;;;10.03;76.38
40155;BME280;25875;48.202;16.334;2023-05-17T06:45:10;98964.34;;;9.68;76.20
40155;BME280;25875;48.202;16.334;2023-05-17T06:47:37;99040.59;;;10.07;76.32
40155;BME280;25875;48.202;16.334;2023-05-17T06:50:05;99044.09;;;10.08;76.40
40155;BME280;25875;48.202;16.334;2023-05-17T06:52:34;99037.09;;;10.07;76.48
40155;BME280;25875;48.202;16.334;2023-05-17T06:55:01;99040.78;;;10.04;76.54
40155;BME280;25875;48.202;16.334;2023-05-17T06:57:27;99056.66;;;10.04;76.57
40155;BME280;25875;48.202;16.334;2023-05-17T06:59:54;99064.69;;;10.03;76.63
40155;BME280;25875;48.202;16.334;2023-05-17T07:02:21;99075.28;;;10.03;76.65
40155;BME280;25875;48.202;16.334;2023-05-17T07:04:48;99077.25;;;9.99;76.49
40155;BME280;25875;48.202;16.334;2023-05-17T07:07:14;98931.59;;;9.08;76.53
40155;BME280;25875;48.202;16.334;2023-05-17T07:09:42;99078.13;;;10.00;76.72
40155;BME280;25875;48.202;16.334;2023-05-17T07:12:09;99074.69;;;9.98;76.65
40155;BME280;25875;48.202;16.334;2023-05-17T07:14:36;99076.41;;;9.99;76.98
40155;BME280;25875;48.202;16.334;2023-05-17T07:17:03;99068.13;;;9.89;76.68
40155;BME280;25875;48.202;16.334;2023-05-17T07:19:30;99091.25;;;10.01;76.80
40155;BME280;25875;48.202;16.334;2023-05-17T07:21:57;99091.25;;;10.01;76.66
40155;BME280;25875;48.202;16.334;2023-05-17T07:24:23;98974.53;;;9.28;76.30
40155;BME280;25875;48.202;16.334;2023-05-17T07:26:51;99094.94;;;9.99;76.33
40155;BME280;25875;48.202;16.334;2023-05-17T07:29:18;99090.59;;;9.98;76.32
40155;BME280;25875;48.202;16.334;2023-05-17T07:31:45;99094.00;;;10.00;76.19
40155;BME280;25875;48.202;16.334;2023-05-17T07:34:12;99105.44;;;10.00;76.38
40155;BME280;25875;48.202;16.334;2023-05-17T07:36:39;98913.25;;;8.89;76.25
40155;BME280;25875;48.202;16.334;2023-05-17T07:39:06;99108.19;;;9.99;76.57
40155;BME280;25875;48.202;16.334;2023-05-17T07:41:33;99116.13;;;9.99;76.55
40155;BME280;25875;48.202;16.334;2023-05-17T07:44:01;99119.78;;;9.96;76.44
40155;BME280;25875;48.202;16.334;2023-05-17T07:46:28;99120.81;;;9.93;76.23
40155;BME280;25875;48.202;16.334;2023-05-17T07:48:55;99115.53;;;9.93;76.50
40155;BME280;25875;48.202;16.334;2023-05-17T07:51:21;99108.34;;;9.80;76.07
40155;BME280;25875;48.202;16.334;2023-05-17T07:53:48;99125.44;;;9.90;76.30
40155;BME280;25875;48.202;16.334;2023-05-17T07:56:15;99111.44;;;9.88;76.28
40155;BME280;25875;48.202;16.334;2023-05-17T07:58:42;99122.00;;;9.88;76.09
40155;BME280;25875;48.202;16.334;2023-05-17T08:01:10;98980.97;;;9.07;75.88
40155;BME280;25875;48.202;16.334;2023-05-17T08:03:37;98930.19;;;8.69;75.81
40155;BME280;25875;48.202;16.334;2023-05-17T08:06:12;99122.69;;;9.91;76.11
40155;BME280;25875;48.202;16.334;2023-05-17T08:08:39;99098.97;;;9.74;75.88
40155;BME280;25875;48.202;16.334;2023-05-17T08:11:06;99122.00;;;9.88;75.84
40155;BME280;25875;48.202;16.334;2023-05-17T08:13:32;99128.34;;;9.85;75.95
40155;BME280;25875;48.202;16.334;2023-05-17T08:15:59;99113.22;;;9.87;75.90
40155;BME280;25875;48.202;16.334;2023-05-17T08:18:29;99125.69;;;9.85;75.96
40155;BME280;25875;48.202;16.334;2023-05-17T08:20:55;99129.19;;;9.86;75.72
40155;BME280;25875;48.202;16.334;2023-05-17T08:23:22;99118.59;;;9.86;75.72
40155;BME280;25875;48.202;16.334;2023-05-17T08:25:49;99124.75;;;9.86;75.74
40155;BME280;25875;48.202;16.334;2023-05-17T08:28:16;99115.88;;;9.87;75.87
40155;BME280;25875;48.202;16.334;2023-05-17T08:30:43;99126.47;;;9.87;75.71
40155;BME280;25875;48.202;16.334;2023-05-17T08:33:10;99138.75;;;9.88;75.91
40155;BME280;25875;48.202;16.334;2023-05-17T08:35:38;99078.13;;;9.52;75.55
40155;BME280;25875;48.202;16.334;2023-05-17T08:38:05;99118.25;;;9.76;75.49
40155;BME280;25875;48.202;16.334;2023-05-17T08:40:33;99134.22;;;9.90;75.26
40155;BME280;25875;48.202;16.334;2023-05-17T08:43:01;99144.81;;;9.90;75.30
40155;BME280;25875;48.202;16.334;2023-05-17T08:45:28;99115.53;;;9.78;75.22
40155;BME280;25875;48.202;16.334;2023-05-17T08:47:56;99144.56;;;9.95;75.09
40155;BME280;25875;48.202;16.334;2023-05-17T08:50:27;99141.91;;;9.95;75.24
40155;BME280;25875;48.202;16.334;2023-05-17T08:52:57;99138.25;;;9.98;75.23
40155;BME280;25875;48.202;16.334;2023-05-17T08:55:25;99143.44;;;9.99;75.34
40155;BME280;25875;48.202;16.334;2023-05-17T08:57:53;99138.16;;;9.99;75.13
40155;BME280;25875;48.202;16.334;2023-05-17T09:00:22;99140.63;;;10.02;75.33
40155;BME280;25875;48.202;16.334;2023-05-17T09:02:50;99143.97;;;10.06;75.09
40155;BME280;25875;48.202;16.334;2023-05-17T09:05:16;99150.03;;;10.08;75.33
40155;BME280;25875;48.202;16.334;2023-05-17T09:07:46;99159.75;;;10.07;75.14
40155;BME280;25875;48.202;16.334;2023-05-17T09:10:15;99152.66;;;10.08;75.22
40155;BME280;25875;48.202;16.334;2023-05-17T09:12:43;99165.81;;;10.09;74.80
40155;BME280;25875;48.202;16.334;2023-05-17T09:15:14;99163.25;;;10.08;75.03
40155;BME280;25875;48.202;16.334;2023-05-17T09:17:41;99133.28;;;9.91;75.39
40155;BME280;25875;48.202;16.334;2023-05-17T09:20:09;99172.75;;;10.12;74.96
40155;BME280;25875;48.202;16.334;2023-05-17T09:22:36;99176.31;;;10.11;74.81
40155;BME280;25875;48.202;16.334;2023-05-17T09:25:03;99173.59;;;10.12;74.71
40155;BME280;25875;48.202;16.334;2023-05-17T09:27:33;99178.03;;;10.12;74.55
40155;BME280;25875;48.202;16.334;2023-05-17T09:30:00;99184.19;;;10.12;74.61
40155;BME280;25875;48.202;16.334;2023-05-17T09:32:26;99193.94;;;10.12;74.48
40155;BME280;25875;48.202;16.334;2023-05-17T09:34:53;99173.41;;;10.00;74.49
40155;BME280;25875;48.202;16.334;2023-05-17T09:37:21;99189.47;;;10.12;74.40
40155;BME280;25875;48.202;16.334;2023-05-17T09:39:48;99194.78;;;10.12;74.50
40155;BME280;25875;48.202;16.334;2023-05-17T09:42:15;99204.44;;;10.13;74.49
40155;BME280;25875;48.202;16.334;2023-05-17T09:44:49;99216.13;;;10.09;74.37
40155;BME280;25875;48.202;16.334;2023-05-17T09:47:25;99212.53;;;10.10;74.30
40155;BME280;25875;48.202;16.334;2023-05-17T09:49:53;99216.91;;;10.11;74.48
40155;BME280;25875;48.202;16.334;2023-05-17T09:52:22;99219.72;;;10.08;74.15
40155;BME280;25875;48.202;16.334;2023-05-17T09:54:53;99219.81;;;10.07;74.18
40155;BME280;25875;48.202;16.334;2023-05-17T09:57:20;99215.28;;;10.09;74.52
40155;BME280;25875;48.202;16.334;2023-05-17T09:59:49;99223.22;;;10.09;74.19
40155;BME280;25875;48.202;16.334;2023-05-17T10:02:20;99219.81;;;10.07;74.50
40155;BME280;25875;48.202;16.334;2023-05-17T10:04:49;99221.59;;;10.06;74.47
40155;BME280;25875;48.202;16.334;2023-05-17T10:07:17;99212.97;;;10.03;74.35
40155;BME280;25875;48.202;16.334;2023-05-17T10:09:46;99205.69;;;9.90;74.23
40155;BME280;25875;48.202;16.334;2023-05-17T10:12:16;99219.97;;;10.04;74.46
40155;BME280;25875;48.202;16.334;2023-05-17T10:14:43;99173.22;;;9.71;74.26
40155;BME280;25875;48.202;16.334;2023-05-17T10:17:12;99233.81;;;10.09;74.54
40155;BME280;25875;48.202;16.334;2023-05-17T10:19:39;99234.75;;;10.08;74.46
40155;BME280;25875;48.202;16.334;2023-05-17T10:22:07;99252.69;;;10.03;74.24
40155;BME280;25875;48.202;16.334;2023-05-17T10:24:34;99248.50;;;9.99;74.70
40155;BME280;25875;48.202;16.334;2023-05-17T10:27:02;99221.16;;;9.82;74.58
40155;BME280;25875;48.202;16.334;2023-05-17T10:29:31;99248.56;;;9.97;74.74
40155;BME280;25875;48.202;16.334;2023-05-17T10:32:02;99253.03;;;9.97;74.91
40155;BME280;25875;48.202;16.334;2023-05-17T10:34:32;99241.56;;;9.96;75.05
40155;BME280;25875;48.202;16.334;2023-05-17T10:37:00;99233.63;;;9.96;75.13
40155;BME280;25875;48.202;16.334;2023-05-17T10:39:27;99247.88;;;9.93;74.98
40155;BME280;25875;48.202;16.334;2023-05-17T10:41:56;99225.66;;;9.80;74.96
40155;BME280;25875;48.202;16.334;2023-05-17T10:44:23;99239.69;;;9.98;74.89
40155;BME280;25875;48.202;16.334;2023-05-17T10:46:52;99133.28;;;9.27;74.87
40155;BME280;25875;48.202;16.334;2023-05-17T10:49:19;99241.41;;;9.99;74.80
40155;BME280;25875;48.202;16.334;2023-05-17T10:51:47;99242.25;;;10.00;74.76
40155;BME280;25875;48.202;16.334;2023-05-17T10:54:14;99191.31;;;9.63;74.83
40155;BME280;25875;48.202;16.334;2023-05-17T10:56:47;99240.63;;;9.97;74.96
40155;BME280;25875;48.202;16.334;2023-05-17T10:59:18;99237.06;;;9.98;74.96
40155;BME280;25875;48.202;16.334;2023-05-17T11:01:54;99246.78;;;9.98;74.63
40155;BME280;25875;48.202;16.334;2023-05-17T11:04:24;99151.53;;;9.49;74.68
40155;BME280;25875;48.202;16.334;2023-05-17T11:06:54;99238.16;;;9.94;74.58
40155;BME280;25875;48.202;16.334;2023-05-17T11:09:41;99244.31;;;9.94;74.73
40155;BME280;25875;48.202;16.334;2023-05-17T11:12:09;99252.16;;;9.96;74.73
40155;BME280;25875;48.202;16.334;2023-05-17T11:14:45;99260.97;;;9.97;74.57
40155;BME280;25875;48.202;16.334;2023-05-17T11:17:13;99267.03;;;9.99;74.75
40155;BME280;25875;48.202;16.334;2023-05-17T11:19:48;99274.19;;;9.97;74.51
40155;BME280;25875;48.202;16.334;2023-05-17T11:22:17;99245.28;;;9.76;74.51
40155;BME280;25875;48.202;16.334;2023-05-17T11:24:44;99275.91;;;9.98;74.73
40155;BME280;25875;48.202;16.334;2023-05-17T11:27:11;99289.16;;;9.98;74.74
40155;BME280;25875;48.202;16.334;2023-05-17T11:29:40;99288.28;;;9.97;74.61
40155;BME280;25875;48.202;16.334;2023-05-17T11:32:09;99283.84;;;9.98;74.82
40155;BME280;25875;48.202;16.334;2023-05-17T11:34:35;99280.25;;;9.99;75.08
40155;BME280;25875;48.202;16.334;2023-05-17T11:37:03;99286.50;;;9.98;74.80
40155;BME280;25875;48.202;16.334;2023-05-17T11:40:00;99300.66;;;9.97;75.22
40155;BME280;25875;48.202;16.334;2023-05-17T11:42:28;99289.22;;;9.96;75.48
40155;BME280;25875;48.202;16.334;2023-05-17T11:44:55;99300.59;;;9.98;75.48
40155;BME280;25875;48.202;16.334;2023-05-17T11:47:23;99305.03;;;9.98;75.43
40155;BME280;25875;48.202;16.334;2023-05-17T11:49:50;99313.81;;;9.98;75.52
40155;BME280;25875;48.202;16.334;2023-05-17T11:52:17;99294.25;;;9.85;75.65
40155;BME280;25875;48.202;16.334;2023-05-17T11:54:45;99312.03;;;9.99;75.96
40155;BME280;25875;48.202;16.334;2023-05-17T11:57:14;99299.81;;;9.96;75.93
40155;BME280;25875;48.202;16.334;2023-05-17T11:59:42;99329.22;;;10.07;75.79
40155;BME280;25875;48.202;16.334;2023-05-17T12:02:09;99306.25;;;10.08;75.88
40155;BME280;25875;48.202;16.334;2023-05-17T12:04:37;99315.91;;;10.09;76.03
40155;BME280;25875;48.202;16.334;2023-05-17T12:07:07;99312.31;;;10.10;76.08
40155;BME280;25875;48.202;16.334;2023-05-17T12:09:35;99312.16;;;10.13;76.01
40155;BME280;25875;48.202;16.334;2023-05-17T12:12:04;99306.66;;;10.00;76.25
40155;BME280;25875;48.202;16.334;2023-05-17T12:14:32;99325.31;;;10.14;76.28
40155;BME280;25875;48.202;16.334;2023-05-17T12:17:00;99331.63;;;10.12;76.32
40155;BME280;25875;48.202;16.334;2023-05-17T12:19:28;98864.38;;;7.31;76.15
40155;BME280;25875;48.202;16.334;2023-05-17T12:22:04;99292.53;;;9.84;76.56
40155;BME280;25875;48.202;16.334;2023-05-17T12:24:36;99348.38;;;10.12;76.57
40155;BME280;25875;48.202;16.334;2023-05-17T12:27:05;99345.72;;;10.12;76.34
40155;BME280;25875;48.202;16.334;2023-05-17T12:29:32;99274.50;;;9.75;76.37
40155;BME280;25875;48.202;16.334;2023-05-17T12:31:59;99249.31;;;9.50;76.39
40155;BME280;25875;48.202;16.334;2023-05-17T12:34:27;99198.00;;;9.20;75.95
40155;BME280;25875;48.202;16.334;2023-05-17T12:36:55;99341.59;;;10.07;76.04
40155;BME280;25875;48.202;16.334;2023-05-17T12:39:22;99344.41;;;10.04;76.05
40155;BME280;25875;48.202;16.334;2023-05-17T12:41:49;99347.22;;;10.01;76.17
40155;BME280;25875;48.202;16.334;2023-05-17T12:44:19;99349.78;;;10.02;76.26
40155;BME280;25875;48.202;16.334;2023-05-17T12:46:46;99345.34;;;10.03;76.25
40155;BME280;25875;48.202;16.334;2023-05-17T12:49:18;99350.50;;;10.06;76.08
40155;BME280;25875;48.202;16.334;2023-05-17T12:51:47;99354.00;;;10.06;76.09
40155;BME280;25875;48.202;16.334;2023-05-17T12:54:23;99354.06;;;10.05;76.29
40155;BME280;25875;48.202;16.334;2023-05-17T12:56:51;99346.91;;;10.07;76.39